Time;durP1;ratioP1;P1;durP2;ratioP2;P2;SDS_P1;SDS_P2;PMS_P1;PMS_P2;Temp;Humidity;BMP_temperature;BMP_pressure;BME280_temperature;BME280_humidity;BME280_pressure;Samples;Min_cycle;Max_cycle;Signal;HPM_P1;HPM_P2
2023/10/03 00:00:31;;;;;;;18.67;12.27;;;;;;;17.54;100.00;102123.88;4945652;28;20456;-75
2023/10/03 00:03:07;;;;;;;19.80;12.37;;;;;;;17.51;100.00;102127.03;4941386;28;20900;-75
2023/10/03 00:05:33;;;;;;;19.13;12.00;;;;;;;17.35;100.00;102084.91;4947224;28;20499;-75
2023/10/03 00:08:06;;;;;;;19.27;12.33;;;;;;;17.62;100.00;102115.50;4949590;28;20917;-76
2023/10/03 00:10:38;;;;;;;18.83;11.50;;;;;;;17.49;100.00;102094.66;4948078;28;20183;-72
2023/10/03 00:13:07;;;;;;;20.63;12.93;;;;;;;17.34;100.00;102058.84;4962006;28;20466;-75
2023/10/03 00:15:32;;;;;;;21.27;13.00;;;;;;;16.85;100.00;101963.50;4948794;28;21043;-75
2023/10/03 00:17:58;;;;;;;22.67;13.87;;;;;;;16.94;100.00;101966.81;4949478;28;20450;-75
2023/10/03 00:20:23;;;;;;;21.60;13.00;;;;;;;17.66;100.00;102073.31;4949216;28;20187;-75
2023/10/03 00:22:51;;;;;;;20.37;12.80;;;;;;;17.56;100.00;102054.81;4947869;28;20206;-75
2023/10/03 00:25:18;;;;;;;22.83;13.37;;;;;;;16.91;100.00;101957.22;4940305;28;20849;-75
2023/10/03 00:27:46;;;;;;;19.80;13.00;;;;;;;16.76;100.00;101926.00;4948478;28;20450;-76
2023/10/03 00:30:12;;;;;;;20.97;12.37;;;;;;;17.04;100.00;101964.50;4963882;28;20450;-75
2023/10/03 00:32:40;;;;;;;19.97;12.40;;;;;;;17.54;100.00;102037.91;4946894;28;21318;-75
2023/10/03 00:35:06;;;;;;;22.13;13.00;;;;;;;17.27;100.00;101988.38;4949893;29;20476;-75
2023/10/03 00:37:32;;;;;;;21.27;12.90;;;;;;;17.21;100.00;101983.78;4947908;28;20797;-75
2023/10/03 00:39:59;;;;;;;22.43;13.60;;;;;;;16.75;100.00;101916.19;4948234;28;20457;-75
2023/10/03 00:42:24;;;;;;;20.97;12.23;;;;;;;17.05;100.00;101951.75;4947109;28;20238;-75
2023/10/03 00:44:50;;;;;;;26.07;14.00;;;;;;;16.73;100.00;101890.16;4949026;28;20446;-75
2023/10/03 00:47:15;;;;;;;21.40;12.93;;;;;;;17.19;100.00;101953.38;4948659;28;20195;-75
2023/10/03 00:49:46;;;;;;;24.57;14.43;;;;;;;17.24;100.00;101969.84;4947639;28;20238;-76
2023/10/03 00:52:12;;;;;;;20.70;13.13;;;;;;;16.65;100.00;101865.16;4948615;28;20265;-75
2023/10/03 00:54:39;;;;;;;20.90;13.23;;;;;;;16.72;100.00;101847.00;4949820;28;20485;-75
2023/10/03 00:57:05;;;;;;;21.07;12.97;;;;;;;17.44;100.00;101964.28;4947835;29;20218;-75
2023/10/03 00:59:33;;;;;;;22.77;14.67;;;;;;;16.92;100.00;101865.91;4946818;28;20529;-75
2023/10/03 01:02:05;;;;;;;22.70;13.80;;;;;;;17.42;100.00;101933.84;4946983;28;20211;-75
2023/10/03 01:04:31;;;;;;;24.83;14.47;;;;;;;17.03;100.00;101848.97;4949101;29;20446;-75
2023/10/03 01:06:58;;;;;;;21.67;13.93;;;;;;;16.69;100.00;101787.84;4945469;28;20439;-75
2023/10/03 01:09:27;;;;;;;24.77;14.87;;;;;;;17.39;100.00;101878.16;4948602;28;20638;-75
2023/10/03 01:11:53;;;;;;;22.03;13.57;;;;;;;17.45;100.00;101857.47;4946791;28;20493;-75
2023/10/03 01:14:19;;;;;;;22.87;14.73;;;;;;;16.88;100.00;101761.72;4960897;28;20921;-75
2023/10/03 01:16:45;;;;;;;23.97;14.73;;;;;;;17.57;100.00;101834.00;4946761;28;20443;-75
2023/10/03 01:19:15;;;;;;;24.47;15.00;;;;;;;17.17;100.00;101741.28;4947826;28;20191;-75
2023/10/03 01:21:41;;;;;;;22.27;14.57;;;;;;;17.06;100.00;101707.59;4963104;28;20442;-75
2023/10/03 01:24:09;;;;;;;24.00;15.70;;;;;;;16.92;100.00;101676.22;4962561;28;20447;-75
2023/10/03 01:26:35;;;;;;;30.63;17.00;;;;;;;17.14;100.00;101684.81;4947768;28;20981;-75
2023/10/03 01:29:00;;;;;;;20.93;13.80;;;;;;;16.73;100.00;101604.88;4947926;28;20597;-76
2023/10/03 01:31:27;;;;;;;25.30;15.43;;;;;;;16.83;100.00;101612.53;4947457;28;20198;-75
2023/10/03 01:33:52;;;;;;;30.23;16.97;;;;;;;17.09;100.00;101655.66;4947637;28;20186;-75
2023/10/03 01:36:19;;;;;;;26.93;15.93;;;;;;;17.28;100.00;101663.84;4948824;28;20478;-75
2023/10/03 01:38:45;;;;;;;29.43;16.37;;;;;;;17.25;100.00;101659.69;4947144;28;20289;-75
2023/10/03 01:41:12;;;;;;;28.07;16.57;;;;;;;17.26;100.00;101668.66;4946756;28;20505;-76
2023/10/03 01:43:44;;;;;;;27.67;17.10;;;;;;;17.36;100.00;101677.13;4948599;28;20369;-75
2023/10/03 01:46:11;;;;;;;25.60;14.33;;;;;;;16.79;100.00;101581.53;4947497;28;20443;-75
2023/10/03 01:48:37;;;;;;;28.07;17.17;;;;;;;17.01;100.00;101609.88;4961716;28;20446;-75
2023/10/03 01:51:02;;;;;;;29.23;16.90;;;;;;;17.29;100.00;101650.03;4948219;28;20461;-75
2023/10/03 01:53:29;;;;;;;33.73;17.10;;;;;;;16.57;100.00;101535.00;4946519;28;20202;-75
2023/10/03 01:55:55;;;;;;;27.00;16.67;;;;;;;16.67;100.00;101559.72;4960016;28;20214;-75
2023/10/03 01:58:24;;;;;;;32.40;18.20;;;;;;;16.40;100.00;101505.78;4947721;28;20764;-75
2023/10/03 02:00:50;;;;;;;29.77;17.50;;;;;;;16.62;100.00;101538.69;4949231;28;20442;-75
2023/10/03 02:03:18;;;;;;;25.90;15.20;;;;;;;17.04;100.00;101587.75;4947864;28;20953;-75
2023/10/03 02:05:44;;;;;;;31.50;17.33;;;;;;;16.98;100.00;101550.72;4961857;28;20954;-75
2023/10/03 02:08:16;;;;;;;;;;;;;;;;;;;;;
2023/10/03 02:10:44;;;;;;;26.17;15.70;;;;;;;17.06;100.00;101563.13;4946060;28;20929;-72
2023/10/03 02:13:17;;;;;;;28.13;17.40;;;;;;;16.22;100.00;101435.31;4946617;28;20502;-75
2023/10/03 02:15:48;;;;;;;26.67;15.73;;;;;;;16.36;100.00;101458.53;4945454;28;20546;-72
2023/10/03 02:18:16;;;;;;;27.00;15.80;;;;;;;16.58;100.00;101463.56;4947584;28;20949;-73
2023/10/03 02:20:53;;;;;;;25.23;15.23;;;;;;;16.91;100.00;101514.69;4946562;28;21345;-73
2023/10/03 02:23:19;;;;;;;30.57;16.40;;;;;;;16.96;100.00;101519.47;4945947;28;20462;-72
2023/10/03 02:25:49;;;;;;;29.17;15.93;;;;;;;16.34;100.00;101413.78;4947457;28;20443;-73
2023/10/03 02:28:16;;;;;;;25.50;14.50;;;;;;;17.00;100.00;101502.50;4953457;28;20519;-73
2023/10/03 02:30:47;;;;;;;27.17;15.80;;;;;;;16.40;100.00;101394.78;4945595;28;20521;-72
2023/10/03 02:33:13;;;;;;;25.17;15.20;;;;;;;17.02;100.00;101484.16;4946925;28;20506;-73
2023/10/03 02:35:42;;;;;;;26.00;14.83;;;;;;;16.25;100.00;101359.09;4945680;28;20613;-73
2023/10/03 02:38:23;;;;;;;22.53;13.80;;;;;;;16.97;100.00;101451.47;4947513;28;20223;-72
2023/10/03 02:40:49;;;;;;;22.97;13.60;;;;;;;16.93;100.00;101418.59;4947172;28;20480;-73
2023/10/03 02:43:15;;;;;;;25.80;14.30;;;;;;;16.66;100.00;101353.03;4943861;28;20474;-74
2023/10/03 02:45:42;;;;;;;25.90;15.43;;;;;;;16.61;100.00;101352.06;4942564;28;20186;-73
2023/10/03 02:48:17;;;;;;;25.27;14.60;;;;;;;16.88;100.00;101394.03;4943448;28;20457;-74
2023/10/03 02:50:45;;;;;;;28.73;14.33;;;;;;;17.01;100.00;101382.22;4957810;28;20450;-73
2023/10/03 02:53:45;;;;;;;26.47;14.00;;;;;;;16.50;100.00;101305.72;4956510;28;20466;-73
2023/10/03 02:56:04;;;;;;;29.07;15.13;;;;;;;16.72;100.00;101340.44;4944628;28;20981;-74
2023/10/03 02:58:29;;;;;;;25.17;14.43;;;;;;;16.98;100.00;101347.47;4943101;28;20443;-73
2023/10/03 03:00:56;;;;;;;27.60;15.13;;;;;;;16.90;100.00;101351.31;4943153;28;20457;-73
2023/10/03 03:03:23;;;;;;;28.60;15.40;;;;;;;16.94;100.00;101341.66;4942429;28;20294;-73
2023/10/03 03:05:49;;;;;;;28.33;15.10;;;;;;;16.79;100.00;101297.88;4941632;28;20449;-73
2023/10/03 03:08:23;;;;;;;27.30;15.50;;;;;;;16.98;100.00;101328.50;4940747;28;21061;-73
2023/10/03 03:10:57;;;;;;;29.73;15.60;;;;;;;16.94;100.00;101300.19;4941229;28;20443;-74
2023/10/03 03:13:29;;;;;;;27.57;15.13;;;;;;;16.98;100.00;101324.94;4944116;28;21047;-73
2023/10/03 03:16:01;;;;;;;31.67;15.40;;;;;;;16.22;100.00;101197.16;4941673;28;21388;-73
2023/10/03 03:18:31;;;;;;;30.67;14.47;;;;;;;16.88;100.00;101310.06;4942441;28;20444;-73
2023/10/03 03:21:04;;;;;;;24.97;14.20;;;;;;;16.47;100.00;101237.66;4943366;28;20470;-73
2023/10/03 03:23:36;;;;;;;28.53;14.63;;;;;;;16.72;100.00;101254.63;4939577;28;20470;-73
2023/10/03 03:26:18;;;;;;;27.40;14.73;;;;;;;17.08;100.00;101307.06;4941672;28;20449;-74
2023/10/03 03:28:47;;;;;;;28.20;14.73;;;;;;;16.44;100.00;101200.22;4942557;28;20457;-74
2023/10/03 03:31:25;;;;;;;30.23;15.30;;;;;;;16.98;100.00;101259.91;4946682;28;20534;-74
2023/10/03 03:34:00;;;;;;;26.13;14.53;;;;;;;17.20;100.00;101260.19;4945600;28;20452;-74
2023/10/03 03:36:30;;;;;;;28.87;13.57;;;;;;;17.40;100.00;101252.56;4947982;28;21124;-74
2023/10/03 03:38:58;;;;;;;27.23;14.07;;;;;;;17.48;100.00;101249.53;4942267;28;20827;-73
2023/10/03 03:41:23;;;;;;;28.83;14.93;;;;;;;16.91;100.00;101138.06;4950483;28;20538;-74
2023/10/03 03:43:49;;;;;;;29.27;14.80;;;;;;;16.85;100.00;101099.19;4949119;28;20541;-75
2023/10/03 03:46:18;;;;;;;32.23;16.60;;;;;;;17.59;100.00;101197.16;4949070;28;20274;-73
2023/10/03 03:48:44;;;;;;;28.00;13.83;;;;;;;17.45;100.00;101163.22;4949607;28;20619;-74
2023/10/03 03:51:12;;;;;;;30.63;15.03;;;;;;;17.69;100.00;101191.13;4949563;28;20442;-75
2023/10/03 03:53:38;;;;;;;29.10;15.80;;;;;;;17.03;100.00;101081.19;4944349;28;20245;-75
2023/10/03 03:56:07;;;;;;;27.20;13.27;;;;;;;17.14;100.00;101091.19;4945051;28;20884;-74
2023/10/03 03:58:54;;;;;;;28.73;16.80;;;;;;;17.20;100.00;101073.16;4947877;28;21006;-74
2023/10/03 04:01:20;;;;;;;26.57;14.37;;;;;;;17.45;100.00;101083.75;4946930;28;20443;-75
2023/10/03 04:03:47;;;;;;;30.87;16.30;;;;;;;17.98;100.00;101145.09;4943468;28;20465;-74
2023/10/03 04:06:13;;;;;;;29.63;15.50;;;;;;;17.53;100.00;101091.50;4946362;28;20214;-74
2023/10/03 04:08:39;;;;;;;31.93;15.50;;;;;;;17.51;100.00;101080.91;4946872;28;20483;-74
2023/10/03 04:11:07;;;;;;;27.73;14.97;;;;;;;17.80;100.00;101116.25;4944194;28;20555;-74
2023/10/03 04:13:38;;;;;;;31.20;15.50;;;;;;;16.95;100.00;101001.06;4945396;28;20548;-74
2023/10/03 04:16:07;;;;;;;30.57;15.10;;;;;;;16.91;100.00;100986.34;4944858;28;20470;-75
2023/10/03 04:18:34;;;;;;;32.57;17.70;;;;;;;17.06;100.00;101019.19;4952370;28;20956;-75
2023/10/03 04:21:00;;;;;;;30.27;15.00;;;;;;;17.31;100.00;101045.22;4953823;28;20449;-76
2023/10/03 04:23:26;;;;;;;27.83;15.70;;;;;;;17.67;100.00;101102.91;4958714;28;20501;-74
2023/10/03 04:25:52;;;;;;;32.53;16.00;;;;;;;17.34;100.00;101033.91;4947714;28;20917;-74
2023/10/03 04:28:18;;;;;;;33.70;16.27;;;;;;;17.01;100.00;100969.50;4935289;28;20191;-74
2023/10/03 04:30:43;;;;;;;29.80;15.90;;;;;;;17.63;100.00;101040.19;4943766;28;20449;-75
2023/10/03 04:33:09;;;;;;;33.77;16.83;;;;;;;17.62;100.00;101031.25;4947423;28;20218;-74
2023/10/03 04:35:35;;;;;;;28.73;15.10;;;;;;;17.71;100.00;101042.53;4944799;28;20301;-74
2023/10/03 04:38:00;;;;;;;34.27;16.87;;;;;;;17.20;100.00;100954.72;4959890;28;20734;-74
2023/10/03 04:40:33;;;;;;;30.60;15.97;;;;;;;17.06;100.00;100924.34;4946681;28;20450;-75
2023/10/03 04:42:58;;;;;;;37.60;16.27;;;;;;;17.60;100.00;101016.25;4947873;28;20614;-74
2023/10/03 04:45:28;;;;;;;32.37;16.17;;;;;;;17.42;100.00;100954.09;4946656;28;20601;-74
2023/10/03 04:47:53;;;;;;;33.60;15.50;;;;;;;17.28;100.00;100910.16;4944346;28;20246;-74
2023/10/03 04:50:25;;;;;;;27.70;15.33;;;;;;;17.14;100.00;100887.94;4945726;28;20458;-74
2023/10/03 04:52:52;;;;;;;33.30;16.20;;;;;;;17.70;100.00;100981.19;4944555;28;20695;-74
2023/10/03 04:55:19;;;;;;;32.63;14.80;;;;;;;17.81;100.00;100987.66;4943879;28;20561;-75
2023/10/03 04:57:46;;;;;;;28.77;15.67;;;;;;;17.90;100.00;101012.50;4962702;28;20442;-73
2023/10/03 05:00:15;;;;;;;31.00;14.60;;;;;;;17.96;100.00;101000.69;4959708;28;20561;-74
2023/10/03 05:02:46;;;;;;;29.00;14.87;;;;;;;17.92;100.00;100978.66;4946139;28;20508;-75
2023/10/03 05:05:23;;;;;;;31.80;16.30;;;;;;;17.18;100.00;100859.28;4942829;28;20447;-74
2023/10/03 05:07:52;;;;;;;29.30;15.03;;;;;;;17.98;100.00;100971.41;4944400;28;20450;-74
2023/10/03 05:10:19;;;;;;;29.87;15.10;;;;;;;17.84;100.00;100960.84;4960594;28;20451;-75
2023/10/03 05:12:45;;;;;;;34.80;16.53;;;;;;;17.90;100.00;100959.06;4946907;28;20464;-75
2023/10/03 05:15:12;;;;;;;28.60;14.80;;;;;;;17.31;100.00;100855.47;4947881;28;21031;-75
2023/10/03 05:17:38;;;;;;;28.73;15.03;;;;;;;17.46;100.00;100879.31;4945081;28;20467;-74
2023/10/03 05:20:04;;;;;;;30.03;15.00;;;;;;;17.34;100.00;100863.91;4948529;28;20454;-74
2023/10/03 05:22:34;;;;;;;27.80;13.77;;;;;;;17.39;100.00;100874.88;4947112;28;20450;-75
2023/10/03 05:25:00;;;;;;;28.40;14.90;;;;;;;17.53;100.00;100886.25;4949536;28;20442;-75
2023/10/03 05:27:28;;;;;;;27.10;15.03;;;;;;;17.63;100.00;100883.69;4950152;28;20869;-74
2023/10/03 05:29:56;;;;;;;24.00;13.90;;;;;;;17.57;100.00;100856.75;4949920;28;20854;-74
2023/10/03 05:32:21;;;;;;;31.73;14.63;;;;;;;17.82;100.00;100884.34;4947666;28;20489;-73
2023/10/03 05:34:47;;;;;;;29.60;14.67;;;;;;;18.11;100.00;100933.13;4947268;28;20506;-75
2023/10/03 05:37:13;;;;;;;26.23;13.93;;;;;;;17.59;100.00;100836.44;4948993;28;20274;-73
2023/10/03 05:39:38;;;;;;;34.13;16.93;;;;;;;18.31;100.00;100940.72;4949263;28;21050;-76
2023/10/03 05:42:04;;;;;;;26.53;13.33;;;;;;;17.92;100.00;100872.00;4944912;28;20529;-75
2023/10/03 05:44:30;;;;;;;27.33;13.40;;;;;;;18.27;100.00;100932.28;4948595;28;20220;-74
2023/10/03 05:46:55;;;;;;;28.63;14.57;;;;;;;18.07;100.00;100918.38;4947044;28;20226;-76
2023/10/03 05:49:24;;;;;;;23.47;12.63;;;;;;;17.97;100.00;100908.19;4946650;28;20191;-76
2023/10/03 05:51:51;;;;;;;26.37;13.00;;;;;;;18.23;100.00;100946.59;4943069;28;20266;-77
2023/10/03 05:54:17;;;;;;;26.70;13.70;;;;;;;17.60;100.00;100845.41;4945503;28;20546;-77
2023/10/03 05:56:43;;;;;;;26.60;13.77;;;;;;;17.84;100.00;100887.59;4947706;28;20597;-76
2023/10/03 05:59:09;;;;;;;23.90;12.87;;;;;;;17.50;100.00;100832.50;4948770;28;21418;-76
2023/10/03 06:01:34;;;;;;;35.40;15.03;;;;;;;18.03;100.00;100890.91;4931959;28;20442;-77
2023/10/03 06:04:00;;;;;;;26.63;13.13;;;;;;;17.67;100.00;100837.91;4946598;28;20195;-74
2023/10/03 06:06:28;;;;;;;23.50;12.13;;;;;;;17.45;100.00;100809.88;4949546;28;20187;-74
2023/10/03 06:08:54;;;;;;;25.47;12.60;;;;;;;17.47;100.00;100824.00;4960289;28;20198;-75
2023/10/03 06:11:19;;;;;;;32.40;15.00;;;;;;;17.75;100.00;100861.91;4947546;28;20677;-74
2023/10/03 06:13:45;;;;;;;27.77;13.50;;;;;;;18.24;100.00;100961.81;4947052;28;20217;-74
2023/10/03 06:16:17;;;;;;;24.00;12.60;;;;;;;17.55;100.00;100851.53;4947419;28;20674;-76
2023/10/03 06:18:43;;;;;;;24.93;11.70;;;;;;;17.87;100.00;100912.59;4940462;28;20207;-76
2023/10/03 06:21:08;;;;;;;25.57;13.30;;;;;;;17.39;100.00;100844.22;4947468;28;20451;-76
2023/10/03 06:23:35;;;;;;;31.00;15.03;;;;;;;17.57;100.00;100868.41;4947840;28;20215;-77
2023/10/03 06:26:01;;;;;;;25.30;12.63;;;;;;;18.27;100.00;100967.56;4944680;28;20206;-74
2023/10/03 06:28:28;;;;;;;27.50;14.00;;;;;;;17.89;100.00;100894.19;4947735;28;20446;-74
2023/10/03 06:30:54;;;;;;;29.50;13.20;;;;;;;18.32;100.00;100968.75;4944180;28;20450;-74
2023/10/03 06:33:20;;;;;;;27.03;12.63;;;;;;;18.38;100.00;100986.75;4956952;28;20462;-75
2023/10/03 06:35:48;;;;;;;24.07;12.27;;;;;;;18.09;100.00;100942.56;4940259;28;20482;-74
2023/10/03 06:38:15;;;;;;;28.33;13.10;;;;;;;18.28;100.00;100962.94;4945585;28;20454;-74
2023/10/03 06:40:41;;;;;;;28.73;12.50;;;;;;;18.21;100.00;100957.69;4961469;28;20525;-74
2023/10/03 06:43:06;;;;;;;23.47;12.40;;;;;;;17.89;100.00;100911.28;4941875;28;20789;-74
2023/10/03 06:45:32;;;;;;;22.13;12.50;;;;;;;17.70;100.00;100883.53;4941533;28;20446;-76
2023/10/03 06:48:02;;;;;;;23.23;10.50;;;;;;;18.34;100.00;100982.88;4941620;28;20191;-76
2023/10/03 06:50:28;;;;;;;25.63;12.50;;;;;;;17.97;100.00;100913.59;4942405;28;20186;-76
2023/10/03 06:52:53;;;;;;;27.13;11.90;;;;;;;18.20;100.00;100945.19;4941883;28;20469;-75
2023/10/03 06:55:19;;;;;;;26.43;11.20;;;;;;;17.98;100.00;100896.25;4946556;28;20865;-76
2023/10/03 06:57:44;;;;;;;19.13;10.63;;;;;;;17.74;100.00;100879.28;4945922;28;20190;-75
2023/10/03 07:00:13;;;;;;;23.23;11.40;;;;;;;18.53;100.00;100984.25;4948806;28;20438;-75
2023/10/03 07:02:39;;;;;;;21.73;9.80;;;;;;;17.94;100.00;100897.81;4941653;28;20206;-75
2023/10/03 07:05:06;;;;;;;20.40;10.43;;;;;;;18.27;100.00;100945.84;4946073;28;20451;-76
2023/10/03 07:07:33;;;;;;;23.53;10.47;;;;;;;18.55;100.00;100995.72;4945288;28;20497;-75
2023/10/03 07:09:58;;;;;;;20.90;11.87;;;;;;;18.53;100.00;101004.09;4945527;28;20505;-75
2023/10/03 07:12:24;;;;;;;26.60;12.07;;;;;;;18.53;100.00;101022.28;4948572;28;20442;-75
2023/10/03 07:14:50;;;;;;;25.40;9.90;;;;;;;17.82;100.00;100916.88;4943490;28;20744;-75
2023/10/03 07:17:16;;;;;;;31.00;11.60;;;;;;;18.12;100.00;100953.75;4959023;28;20446;-75
2023/10/03 07:19:45;;;;;;;21.00;10.10;;;;;;;17.99;100.00;100982.03;4941336;28;20568;-74
2023/10/03 07:22:11;;;;;;;22.37;10.83;;;;;;;18.57;100.00;101052.50;4946735;28;20206;-74
2023/10/03 07:24:39;;;;;;;18.47;9.70;;;;;;;18.44;100.00;101040.06;4946957;28;20438;-74
2023/10/03 07:27:07;;;;;;;22.27;10.17;;;;;;;18.30;100.00;101026.81;4944703;28;20184;-75
2023/10/03 07:29:42;;;;;;;20.00;9.17;;;;;;;18.44;100.00;101048.22;4946208;28;20697;-76
2023/10/03 07:32:12;;;;;;;25.60;10.03;;;;;;;17.53;100.00;100937.75;4944395;28;20992;-73
2023/10/03 07:34:42;;;;;;;20.40;8.37;;;;;;;17.97;100.00;100991.50;4946446;28;20452;-74
2023/10/03 07:37:08;;;;;;;14.03;7.60;;;;;;;18.32;100.00;101052.91;4946957;28;20437;-75
2023/10/03 07:39:33;;;;;;;18.97;7.87;;;;;;;18.00;100.00;101027.09;4946110;28;20902;-75
2023/10/03 07:42:01;;;;;;;13.70;7.13;;;;;;;18.15;100.00;101050.97;4947582;28;20226;-75
2023/10/03 07:44:26;;;;;;;13.17;6.10;;;;;;;17.52;100.00;100967.81;4947796;28;20198;-75
2023/10/03 07:46:52;;;;;;;14.73;6.80;;;;;;;18.20;100.00;101104.56;4947163;28;20831;-75
2023/10/03 07:49:17;;;;;;;16.73;7.20;;;;;;;17.88;100.00;101066.19;4948813;28;20493;-76
2023/10/03 07:51:43;;;;;;;19.53;6.80;;;;;;;17.59;100.00;101039.03;4946729;28;20644;-77
2023/10/03 07:54:08;;;;;;;18.33;7.33;;;;;;;17.53;100.00;101062.53;4947791;28;20615;-76
2023/10/03 07:56:34;;;;;;;16.20;6.70;;;;;;;17.33;100.00;101043.09;4947529;28;20214;-76
2023/10/03 07:59:01;;;;;;;17.23;6.90;;;;;;;17.95;100.00;101159.97;4946723;28;20200;-76
2023/10/03 08:01:28;;;;;;;15.63;6.40;;;;;;;17.45;100.00;101100.03;4949253;28;20249;-76
2023/10/03 08:03:54;;;;;;;13.33;5.60;;;;;;;17.95;100.00;101189.84;4947833;28;20446;-76
2023/10/03 08:06:24;;;;;;;12.13;5.90;;;;;;;17.21;100.00;101086.47;4945021;28;20911;-76
2023/10/03 08:08:55;;;;;;;17.33;6.70;;;;;;;17.71;100.00;101191.72;4946234;28;20936;-76
2023/10/03 08:11:28;;;;;;;15.20;5.90;;;;;;;17.49;100.00;101177.13;4960550;28;20956;-76
2023/10/03 08:14:25;;;;;;;16.27;5.53;;;;;;;17.73;100.00;101229.47;4948673;28;20474;-75
2023/10/03 08:16:51;;;;;;;15.90;5.80;;;;;;;17.75;100.00;101233.59;4944660;28;20483;-76
2023/10/03 08:19:25;;;;;;;13.63;5.80;;;;;;;17.52;100.00;101206.47;4946912;28;20445;-76
2023/10/03 08:21:54;;;;;;;12.80;6.20;;;;;;;17.17;100.00;101163.91;4945985;28;20471;-76
2023/10/03 08:24:28;;;;;;;11.17;5.30;;;;;;;16.94;100.00;101148.44;4944619;28;21145;-76
2023/10/03 08:26:58;;;;;;;13.73;5.00;;;;;;;17.28;100.00;101240.91;4947376;28;20441;-75
2023/10/03 08:29:24;;;;;;;11.90;4.93;;;;;;;17.45;100.00;101289.84;4950777;28;20507;-73
2023/10/03 08:31:57;;;;;;;16.50;5.20;;;;;;;16.79;100.00;101192.25;4962915;28;20478;-73
2023/10/03 08:34:26;;;;;;;10.80;3.83;;;;;;;16.98;100.00;101268.88;4947636;28;20444;-75
2023/10/03 08:36:58;;;;;;;10.63;2.93;;;;;;;17.11;100.00;101279.50;4949273;28;20470;-74
2023/10/03 08:39:26;;;;;;;14.90;2.90;;;;;;;16.45;100.00;101191.84;4951241;28;20429;-72
2023/10/03 08:42:15;;;;;;;13.20;3.10;;;;;;;17.14;100.00;101314.28;4948603;28;20477;-72
2023/10/03 08:44:53;;;;;;;8.60;2.93;;;;;;;17.19;100.00;101342.59;4951340;28;20891;-75
2023/10/03 08:47:30;;;;;;;11.70;2.60;;;;;;;16.34;100.00;101254.06;4951629;28;20570;-75
2023/10/03 08:50:34;;;;;;;16.17;2.87;;;;;;;17.01;100.00;101357.00;4950330;28;20513;-72
2023/10/03 08:53:12;;;;;;;7.60;2.40;;;;;;;16.05;100.00;101221.28;4949956;28;20883;-73
2023/10/03 08:55:49;;;;;;;13.40;3.07;;;;;;;16.73;100.00;101332.09;4950990;28;21156;-73
2023/10/03 08:58:18;;;;;;;6.47;2.20;;;;;;;17.06;100.00;101363.38;4950031;28;20516;-72
2023/10/03 09:00:45;;;;;;;12.47;2.27;;;;;;;16.87;100.00;101362.59;4949975;28;20473;-73
2023/10/03 09:03:12;;;;;;;9.00;2.40;;;;;;;17.05;100.00;101386.13;4948995;28;20832;-73
2023/10/03 09:05:40;;;;;;;9.60;2.40;;;;;;;17.01;100.00;101395.78;4949543;28;20969;-73
2023/10/03 09:08:10;;;;;;;9.83;2.00;;;;;;;16.71;100.00;101357.75;4946640;28;20474;-72
2023/10/03 09:10:50;;;;;;;6.77;1.50;;;;;;;16.19;100.00;101270.69;4948666;28;20453;-74
2023/10/03 09:13:23;;;;;;;6.53;1.30;;;;;;;16.88;100.00;101401.34;4949289;28;20462;-73
2023/10/03 09:15:49;;;;;;;5.90;1.00;;;;;;;16.83;100.00;101372.22;4947762;28;21108;-72
2023/10/03 09:18:21;;;;;;;6.27;1.50;;;;;;;15.97;100.00;101267.59;4948556;28;20681;-72
2023/10/03 09:20:49;;;;;;;6.07;1.23;;;;;;;16.14;100.00;101286.75;4945132;28;20473;-73
2023/10/03 09:23:17;;;;;;;7.20;1.40;;;;;;;16.42;100.00;101360.16;4945668;28;20469;-73
2023/10/03 09:25:48;;;;;;;5.07;1.37;;;;;;;16.85;100.00;101418.06;4945482;28;20438;-72
2023/10/03 09:28:14;;;;;;;8.70;1.67;;;;;;;16.50;100.00;101422.16;4949689;28;20427;-71
2023/10/03 09:30:40;;;;;;;6.20;1.10;;;;;;;16.28;100.00;101432.56;4950747;28;20434;-71
2023/10/03 09:33:11;;;;;;;6.87;1.10;;;;;;;15.50;100.00;101332.88;4949850;28;20517;-71
2023/10/03 09:35:39;;;;;;;6.33;1.17;;;;;;;15.49;100.00;101342.03;4951335;28;20477;-72
2023/10/03 09:38:09;;;;;;;5.10;1.10;;;;;;;15.66;100.00;101396.41;4949315;28;20443;-71
2023/10/03 09:40:51;;;;;;;6.80;1.00;;;;;;;16.08;100.00;101487.91;4946534;28;20446;-71
2023/10/03 09:43:27;;;;;;;5.80;1.00;;;;;;;15.32;100.00;101384.97;4948218;28;20481;-71
2023/10/03 09:45:56;;;;;;;4.53;0.97;;;;;;;15.40;100.00;101410.94;4949435;28;20430;-71
2023/10/03 09:48:25;;;;;;;4.57;1.00;;;;;;;16.11;100.00;101523.47;4948978;28;20444;-71
2023/10/03 09:51:05;;;;;;;3.90;1.03;;;;;;;15.67;100.00;101426.97;4949532;28;20426;-71
2023/10/03 09:53:32;;;;;;;4.60;1.00;;;;;;;16.11;100.00;101484.75;4948658;28;20450;-71
2023/10/03 09:55:59;;;;;;;6.10;1.00;;;;;;;16.32;100.00;101540.41;4948276;28;20482;-71
2023/10/03 09:58:31;;;;;;;4.40;1.03;;;;;;;15.74;100.00;101462.97;4962116;28;20516;-71
2023/10/03 10:00:58;;;;;;;7.30;1.43;;;;;;;16.30;100.00;101540.63;4948903;28;20426;-71
2023/10/03 10:03:36;;;;;;;4.90;1.00;;;;;;;16.18;100.00;101554.03;4947876;28;20968;-71
2023/10/03 10:06:20;;;;;;;3.17;0.90;;;;;;;16.43;100.00;101545.94;4961533;28;20442;-71
2023/10/03 10:08:58;;;;;;;9.10;1.60;;;;;;;16.30;100.00;101565.00;4946682;28;20441;-72
2023/10/03 10:11:26;;;;;;;5.60;1.00;;;;;;;15.44;100.00;101433.75;4947716;28;20439;-72
2023/10/03 10:14:09;;;;;;;3.40;0.90;;;;;;;15.84;100.00;101546.34;4958331;28;20444;-72
2023/10/03 10:16:55;;;;;;;4.60;0.90;;;;;;;15.24;100.00;101433.03;4946555;28;20475;-72
2023/10/03 10:19:21;;;;;;;5.10;1.10;;;;;;;15.52;100.00;101494.88;4949505;28;20882;-72
2023/10/03 10:21:51;;;;;;;4.33;0.90;;;;;;;15.52;100.00;101522.75;4948716;28;20529;-71
2023/10/03 10:24:36;;;;;;;5.60;0.87;;;;;;;15.18;100.00;101480.66;4947781;28;20469;-72
2023/10/03 10:27:18;;;;;;;5.50;1.13;;;;;;;15.78;100.00;101575.91;4948647;28;20437;-71
2023/10/03 10:30:13;;;;;;;5.10;0.93;;;;;;;15.74;100.00;101581.97;4946919;28;20466;-71
2023/10/03 10:33:17;;;;;;;5.33;0.97;;;;;;;16.12;100.00;101619.88;4961275;28;20510;-71
2023/10/03 10:35:56;;;;;;;3.33;1.10;;;;;;;15.80;100.00;101602.75;4948012;28;21225;-72
2023/10/03 10:38:42;;;;;;;4.60;0.97;;;;;;;15.90;100.00;101622.03;4948432;28;20918;-71
2023/10/03 10:41:22;;;;;;;4.73;0.90;;;;;;;15.71;100.00;101641.91;4950701;28;20949;-73
2023/10/03 10:44:13;;;;;;;4.13;1.10;;;;;;;15.95;100.00;101634.94;4947885;28;21129;-72
2023/10/03 10:46:42;;;;;;;4.93;1.07;;;;;;;15.93;100.00;101637.03;4947525;28;20427;-73
2023/10/03 10:49:27;;;;;;;6.07;1.10;;;;;;;15.86;100.00;101653.28;4947243;28;21016;-72
2023/10/03 10:51:59;;;;;;;3.50;1.10;;;;;;;15.84;100.00;101639.13;4946184;28;20882;-71
2023/10/03 10:54:25;;;;;;;4.93;1.30;;;;;;;15.92;100.00;101675.94;4962316;28;20460;-74
2023/10/03 10:56:59;;;;;;;7.83;1.90;;;;;;;15.84;100.00;101693.25;4946225;28;20521;-72
2023/10/03 10:59:28;;;;;;;6.60;1.17;;;;;;;14.95;100.00;101535.19;4947305;28;20182;-71
2023/10/03 11:01:54;;;;;;;5.13;0.97;;;;;;;15.87;100.00;101690.09;4945041;28;20461;-71
2023/10/03 11:04:27;;;;;;;3.50;1.13;;;;;;;15.10;100.00;101565.50;4944589;28;20447;-73
2023/10/03 11:06:53;;;;;;;4.70;1.10;;;;;;;15.25;100.00;101546.34;4946985;28;20964;-72
2023/10/03 11:09:23;;;;;;;4.10;1.10;;;;;;;15.95;100.00;101641.16;4948784;28;20782;-71
2023/10/03 11:11:51;;;;;;;5.87;1.20;;;;;;;15.94;100.00;101647.66;4945581;28;20462;-71
2023/10/03 11:14:29;;;;;;;5.03;1.60;;;;;;;15.85;100.00;101602.09;4947260;28;20490;-71
2023/10/03 11:16:55;;;;;;;6.00;1.50;;;;;;;15.77;100.00;101560.72;4945572;28;20485;-71